createdAt,value
2019-04-20T00:01:03.652Z,7.83
2019-04-20T00:03:37.961Z,8.10
2019-04-20T00:06:03.519Z,8.97
2019-04-20T00:08:36.100Z,8.90
2019-04-20T00:11:10.975Z,7.90
2019-04-20T00:13:45.638Z,7.73
2019-04-20T00:16:04.432Z,12.57
2019-04-20T00:18:41.095Z,6.43
2019-04-20T00:21:22.540Z,8.13
2019-04-20T00:23:54.749Z,10.43
2019-04-20T00:27:00.670Z,8.23
2019-04-20T00:29:18.704Z,7.37
2019-04-20T00:31:43.063Z,8.03
2019-04-20T00:34:09.211Z,11.90
2019-04-20T00:36:30.783Z,8.90
2019-04-20T00:39:04.060Z,8.77
2019-04-20T00:41:34.074Z,9.77
2019-04-20T00:44:06.921Z,9.47
2019-04-20T00:46:41.958Z,6.13
2019-04-20T00:49:24.281Z,8.50
2019-04-20T00:51:52.711Z,7.53
2019-04-20T00:54:05.650Z,8.93
2019-04-20T00:56:35.131Z,7.47
2019-04-20T00:59:19.349Z,6.40
2019-04-20T01:01:52.348Z,7.80
2019-04-20T01:04:27.233Z,7.57
2019-04-20T01:07:10.996Z,7.10
2019-04-20T01:09:43.931Z,6.93
2019-04-20T01:12:19.260Z,7.20
2019-04-20T01:14:51.421Z,10.90
2019-04-20T01:17:14.133Z,7.07
2019-04-20T01:19:43.080Z,10.13
2019-04-20T01:22:16.548Z,11.40
2019-04-20T01:24:45.382Z,5.83
2019-04-20T01:27:29.840Z,6.67
2019-04-20T01:29:50.804Z,7.67
2019-04-20T01:32:23.239Z,7.60
2019-04-20T01:34:55.221Z,9.03
2019-04-20T01:37:29.736Z,7.53
2019-04-20T01:39:52.012Z,6.57
2019-04-20T01:42:17.242Z,8.80
2019-04-20T01:44:50.113Z,7.30
2019-04-20T01:47:17.124Z,8.60
2019-04-20T01:49:49.715Z,16.27
2019-04-20T01:52:25.567Z,9.83
2019-04-20T01:55:23.016Z,7.57
2019-04-20T01:58:02.030Z,8.37
2019-04-20T02:00:35.264Z,8.20
2019-04-20T02:03:23.471Z,7.50
2019-04-20T02:05:56.500Z,8.50
2019-04-20T02:08:22.954Z,8.37
2019-04-20T02:10:55.534Z,7.13
2019-04-20T02:13:21.540Z,7.47
2019-04-20T02:15:55.628Z,7.07
2019-04-20T02:18:32.705Z,11.13
2019-04-20T02:21:13.595Z,9.97
2019-04-20T02:23:34.723Z,7.83
2019-04-20T02:25:54.187Z,7.27
2019-04-20T02:28:44.308Z,9.27
2019-04-20T02:31:32.674Z,7.80
2019-04-20T02:36:51.423Z,8.63
2019-04-20T02:39:21.950Z,7.73
2019-04-20T02:41:47.749Z,6.73
2019-04-20T02:44:17.993Z,8.50
2019-04-20T02:46:49.607Z,9.20
2019-04-20T02:49:19.731Z,6.57
2019-04-20T02:51:46.887Z,9.43
2019-04-20T02:54:15.055Z,7.67
2019-04-20T02:56:48.382Z,6.67
2019-04-20T02:59:42.611Z,8.00
2019-04-20T03:01:43.466Z,7.33
2019-04-20T03:03:56.593Z,7.33
2019-04-20T03:06:33.568Z,10.17
2019-04-20T03:09:17.257Z,5.73
2019-04-20T03:11:52.934Z,7.83
2019-04-20T03:14:10.894Z,11.20
2019-04-20T03:16:43.727Z,7.83
2019-04-20T03:19:11.772Z,10.00
2019-04-20T03:21:52.564Z,6.13
2019-04-20T03:24:28.242Z,6.67
2019-04-20T03:26:56.871Z,7.30
2019-04-20T03:29:49.586Z,9.17
2019-04-20T03:32:56.436Z,9.83
2019-04-20T03:37:30.677Z,9.70
2019-04-20T03:39:47.674Z,9.03
2019-04-20T03:42:07.166Z,11.63
2019-04-20T03:44:37.959Z,10.77
2019-04-20T03:47:10.292Z,9.30
2019-04-20T03:49:59.633Z,9.03
2019-04-20T03:52:44.962Z,10.30
2019-04-20T03:55:39.736Z,10.43
2019-04-20T03:58:19.802Z,8.53
2019-04-20T04:01:19.843Z,11.10
2019-04-20T04:04:13.144Z,9.37
2019-04-20T04:06:33.055Z,11.77
2019-04-20T04:09:02.792Z,7.90
2019-04-20T04:11:35.445Z,9.67
2019-04-20T04:13:52.746Z,10.80
2019-04-20T04:16:22.692Z,10.77
2019-04-20T04:19:01.602Z,11.87
2019-04-20T04:21:41.709Z,14.00
2019-04-20T04:24:07.326Z,13.53
2019-04-20T04:26:39.394Z,12.43
2019-04-20T04:29:23.070Z,14.03
2019-04-20T04:31:52.095Z,9.70
2019-04-20T04:34:12.493Z,11.03
2019-04-20T04:36:51.106Z,8.83
2019-04-20T04:39:21.155Z,9.70
2019-04-20T04:41:50.995Z,10.23
2019-04-20T04:44:14.594Z,9.57
2019-04-20T04:46:33.852Z,8.47
2019-04-20T04:49:09.588Z,10.07
2019-04-20T04:51:42.440Z,12.70
2019-04-20T04:54:13.803Z,9.60
2019-04-20T04:56:33.685Z,8.60
2019-04-20T04:59:02.660Z,12.10
2019-04-20T05:01:33.637Z,10.53
2019-04-20T05:04:22.829Z,10.07
2019-04-20T05:06:52.252Z,8.47
2019-04-20T05:09:05.870Z,11.13
2019-04-20T05:11:34.996Z,11.70
2019-04-20T05:14:10.048Z,12.47
2019-04-20T05:16:50.005Z,14.37
2019-04-20T05:19:44.309Z,9.73
2019-04-20T05:22:04.041Z,11.07
2019-04-20T05:24:34.852Z,9.73
2019-04-20T05:27:30.063Z,9.20
2019-04-20T05:29:42.302Z,9.77
2019-04-20T05:32:16.398Z,12.07
2019-04-20T05:35:05.019Z,16.87
2019-04-20T05:37:57.375Z,11.07
2019-04-20T05:40:06.200Z,12.83
2019-04-20T05:42:35.896Z,9.40
2019-04-20T05:45:01.849Z,12.00
2019-04-20T05:47:36.192Z,8.90
2019-04-20T05:50:01.266Z,9.87
2019-04-20T05:52:46.694Z,10.17
2019-04-20T05:55:10.245Z,9.93
2019-04-20T05:57:42.691Z,13.83
2019-04-20T06:00:15.855Z,11.77
2019-04-20T06:02:45.150Z,11.77
2019-04-20T06:05:19.308Z,10.55
2019-04-20T06:07:45.736Z,10.97
2019-04-20T06:10:20.778Z,9.07
2019-04-20T06:12:45.528Z,11.13
2019-04-20T06:15:19.918Z,9.67
2019-04-20T06:18:20.187Z,18.63
2019-04-20T06:20:59.510Z,9.07
2019-04-20T06:23:50.854Z,9.03
2019-04-20T06:26:26.700Z,14.87
2019-04-20T06:28:41.539Z,9.33
2019-04-20T06:31:17.988Z,10.33
2019-04-20T06:36:49.876Z,9.70
2019-04-20T06:44:30.296Z,11.70
2019-04-20T06:49:29.165Z,10.00
2019-04-20T06:52:23.128Z,9.17
2019-04-20T06:55:03.348Z,10.23
2019-04-20T06:57:38.036Z,9.73
2019-04-20T07:00:08.562Z,11.08
2019-04-20T07:02:41.704Z,11.23
2019-04-20T07:07:40.395Z,7.90
2019-04-20T07:10:13.318Z,7.40
2019-04-20T07:12:37.898Z,10.60
2019-04-20T07:15:01.797Z,9.83
2019-04-20T07:18:06.160Z,11.77
2019-04-20T07:20:55.615Z,11.30
2019-04-20T07:23:29.256Z,9.53
2019-04-20T07:26:04.900Z,10.07
2019-04-20T07:28:25.839Z,13.97
2019-04-20T07:30:50.839Z,8.90
2019-04-20T07:33:24.585Z,9.13
2019-04-20T07:35:50.480Z,9.93
2019-04-20T07:38:40.465Z,11.43
2019-04-20T07:40:53.733Z,10.90
2019-04-20T07:43:25.553Z,10.97
2019-04-20T07:45:55.874Z,12.90
2019-04-20T07:48:26.182Z,9.53
2019-04-20T07:50:48.572Z,9.93
2019-04-20T07:53:22.862Z,9.47
2019-04-20T07:56:00.558Z,13.70
2019-04-20T07:58:19.780Z,13.90
2019-04-20T08:01:09.063Z,9.03
2019-04-20T08:03:42.576Z,10.47
2019-04-20T08:06:19.750Z,9.33
2019-04-20T08:08:57.230Z,13.33
2019-04-20T08:11:41.331Z,10.95
2019-04-20T08:14:13.330Z,10.83
2019-04-20T08:19:09.979Z,12.50
2019-04-20T08:21:47.475Z,13.60
2019-04-20T08:24:15.449Z,11.10
2019-04-20T08:26:31.060Z,11.40
2019-04-20T08:29:14.344Z,13.63
2019-04-20T08:32:10.355Z,12.17
2019-04-20T08:34:41.681Z,14.00
2019-04-20T08:37:06.985Z,14.30
2019-04-20T08:42:13.319Z,13.10
2019-04-20T08:47:22.068Z,13.30
2019-04-20T08:50:13.719Z,12.70
2019-04-20T08:52:58.675Z,14.40
2019-04-20T08:55:04.974Z,15.53
2019-04-20T08:57:20.196Z,12.00
2019-04-20T08:59:51.101Z,13.47
2019-04-20T09:02:20.692Z,15.20
2019-04-20T09:04:58.288Z,14.43
2019-04-20T09:07:26.347Z,15.13
2019-04-20T09:12:43.641Z,11.50
2019-04-20T09:14:53.070Z,12.53
2019-04-20T09:17:35.586Z,13.87
2019-04-20T09:20:09.657Z,13.50
2019-04-20T09:22:51.881Z,13.73
2019-04-20T09:28:11.555Z,13.30
2019-04-20T09:30:46.355Z,17.13
2019-04-20T09:33:48.504Z,15.03
2019-04-20T09:36:16.628Z,15.33
2019-04-20T09:38:59.851Z,15.50
2019-04-20T09:41:49.008Z,18.33
2019-04-20T09:43:58.256Z,17.67
2019-04-20T09:46:30.897Z,15.20
2019-04-20T09:49:02.690Z,17.47
2019-04-20T09:51:46.718Z,17.47
2019-04-20T09:54:21.969Z,12.67
2019-04-20T09:56:48.363Z,16.57
2019-04-20T09:59:18.893Z,19.00
2019-04-20T10:01:40.230Z,16.17
2019-04-20T10:04:01.774Z,18.30
2019-04-20T10:06:34.539Z,13.37
2019-04-20T10:09:03.874Z,14.80
2019-04-20T10:11:31.997Z,16.70
2019-04-20T10:14:01.991Z,17.27
2019-04-20T10:16:33.647Z,13.87
2019-04-20T10:19:02.781Z,15.83
2019-04-20T10:21:35.939Z,14.93
2019-04-20T10:24:06.222Z,14.40
2019-04-20T10:26:36.612Z,14.33
2019-04-20T10:29:05.756Z,16.83
2019-04-20T10:31:42.875Z,17.13
2019-04-20T10:34:09.488Z,14.97
2019-04-20T10:37:01.674Z,17.20
2019-04-20T10:39:31.252Z,12.73
2019-04-20T10:42:02.936Z,16.27
2019-04-20T10:44:30.857Z,14.13
2019-04-20T10:47:00.823Z,17.90
2019-04-20T10:49:31.189Z,21.73
2019-04-20T10:52:00.328Z,16.17
2019-04-20T10:54:30.253Z,17.07
2019-04-20T10:57:05.714Z,14.07
2019-04-20T10:59:34.841Z,16.70
2019-04-20T11:02:03.804Z,14.63
2019-04-20T11:04:32.880Z,13.60
2019-04-20T11:07:02.849Z,18.23
2019-04-20T11:09:32.472Z,18.37
2019-04-20T11:12:02.183Z,17.60
2019-04-20T11:14:36.370Z,16.77
2019-04-20T11:17:02.637Z,17.40
2019-04-20T11:19:31.696Z,15.97
2019-04-20T11:22:02.102Z,18.23
2019-04-20T11:24:32.276Z,17.43
2019-04-20T11:27:02.389Z,16.70
2019-04-20T11:29:31.887Z,16.20
2019-04-20T11:32:01.124Z,15.77
2019-04-20T11:34:34.910Z,13.73
2019-04-20T11:37:01.403Z,18.17
2019-04-20T11:39:30.448Z,17.37
2019-04-20T11:41:59.568Z,13.27
2019-04-20T11:44:31.443Z,14.97
2019-04-20T11:46:59.272Z,14.70
2019-04-20T11:49:28.247Z,15.37
2019-04-20T11:51:57.374Z,17.40
2019-04-20T11:54:26.432Z,13.53
2019-04-20T11:56:55.533Z,10.37
2019-04-20T11:59:25.389Z,10.33
2019-04-20T12:02:05.831Z,9.53
2019-04-20T12:04:45.687Z,15.33
2019-04-20T12:07:08.861Z,12.97
2019-04-20T12:09:38.060Z,14.43
2019-04-20T12:12:20.303Z,14.03
2019-04-20T12:14:38.786Z,11.90
2019-04-20T12:17:08.001Z,10.70
2019-04-20T12:19:37.896Z,12.60
2019-04-20T12:22:07.606Z,12.70
2019-04-20T12:24:36.660Z,9.03
2019-04-20T12:27:06.871Z,13.20
2019-04-20T12:29:35.991Z,11.37
2019-04-20T12:32:06.900Z,12.27
2019-04-20T12:34:35.583Z,11.60
2019-04-20T12:37:05.034Z,13.70
2019-04-20T12:39:35.257Z,11.73
2019-04-20T12:42:07.622Z,12.87
2019-04-20T12:44:35.506Z,15.93
2019-04-20T12:47:05.771Z,12.07
2019-04-20T12:49:35.724Z,12.27
2019-04-20T12:52:06.627Z,15.43
2019-04-20T12:54:36.898Z,11.53
2019-04-20T12:57:06.762Z,15.40
2019-04-20T12:59:35.846Z,15.53
2019-04-20T13:02:05.222Z,13.20
2019-04-20T13:04:35.282Z,10.50
2019-04-20T13:07:05.833Z,16.93
2019-04-20T13:09:40.887Z,12.47
2019-04-20T13:12:30.365Z,13.53
2019-04-20T13:15:36.326Z,15.23
2019-04-20T13:18:07.339Z,12.20
2019-04-20T13:20:36.576Z,12.33
2019-04-20T13:23:06.229Z,16.60
2019-04-20T13:25:37.035Z,14.95
2019-04-20T13:28:08.543Z,12.17
2019-04-20T13:30:37.625Z,13.00
2019-04-20T13:33:07.978Z,12.67
2019-04-20T13:35:38.290Z,10.87
2019-04-20T13:38:07.877Z,13.47
2019-04-20T13:40:37.687Z,14.97
2019-04-20T13:43:07.926Z,13.23
2019-04-20T13:45:37.204Z,14.67
2019-04-20T13:48:06.671Z,14.97
2019-04-20T13:50:36.039Z,13.27
2019-04-20T13:53:05.523Z,13.17
2019-04-20T13:55:35.633Z,11.87
2019-04-20T13:58:30.132Z,14.40
2019-04-20T14:01:19.060Z,12.60
2019-04-20T14:04:02.984Z,12.27
2019-04-20T14:06:33.113Z,12.17
2019-04-20T14:09:03.466Z,12.60
2019-04-20T14:11:33.549Z,11.97
2019-04-20T14:14:05.309Z,13.88
2019-04-20T14:16:33.261Z,13.20
2019-04-20T14:19:02.980Z,10.40
2019-04-20T14:21:32.174Z,12.27
2019-04-20T14:24:01.347Z,15.30
2019-04-20T14:26:30.711Z,13.80
2019-04-20T14:29:00.829Z,13.18
2019-04-20T14:31:30.049Z,12.33
2019-04-20T14:33:59.173Z,13.37
2019-04-20T14:36:28.846Z,14.80
2019-04-20T14:38:58.305Z,13.43
2019-04-20T14:41:28.457Z,14.77
2019-04-20T14:43:57.434Z,11.93
2019-04-20T14:46:27.855Z,15.18
2019-04-20T14:48:56.883Z,16.57
2019-04-20T14:51:25.835Z,13.68
2019-04-20T14:53:55.775Z,13.45
2019-04-20T14:56:25.254Z,15.33
2019-04-20T14:58:59.726Z,13.13
2019-04-20T15:01:38.698Z,15.53
2019-04-20T15:04:13.454Z,15.83
2019-04-20T15:06:39.887Z,12.50
2019-04-20T15:09:10.762Z,11.78
2019-04-20T15:11:41.715Z,13.83
2019-04-20T15:14:11.064Z,12.15
2019-04-20T15:16:40.408Z,11.43
2019-04-20T15:19:27.615Z,12.83
2019-04-20T15:21:58.126Z,12.67
2019-04-20T15:24:27.344Z,14.00
2019-04-20T15:26:56.556Z,13.13
2019-04-20T15:29:26.412Z,12.88
2019-04-20T15:31:56.510Z,12.97
2019-04-20T15:34:26.792Z,11.93
2019-04-20T15:36:56.037Z,13.77
2019-04-20T15:39:25.297Z,11.30
2019-04-20T15:41:54.352Z,10.77
2019-04-20T15:44:23.162Z,11.28
2019-04-20T15:46:53.167Z,14.10
2019-04-20T15:49:22.200Z,18.10
2019-04-20T15:51:52.127Z,10.88
2019-04-20T15:54:21.231Z,13.90
2019-04-20T15:56:56.990Z,15.30
2019-04-20T15:59:22.175Z,13.23
2019-04-20T16:01:55.561Z,11.77
2019-04-20T16:04:44.616Z,11.38
2019-04-20T16:07:15.044Z,11.05
2019-04-20T16:09:44.358Z,11.88
2019-04-20T16:12:13.262Z,12.58
2019-04-20T16:14:43.786Z,11.78
2019-04-20T16:17:12.891Z,12.45
2019-04-20T16:19:51.281Z,12.13
2019-04-20T16:22:15.518Z,11.48
2019-04-20T16:24:49.105Z,13.30
2019-04-20T16:27:41.452Z,15.50
2019-04-20T16:30:13.494Z,12.50
2019-04-20T16:32:42.812Z,28.65
2019-04-20T16:35:11.880Z,11.78
2019-04-20T16:37:40.713Z,11.63
2019-04-20T16:40:11.641Z,14.70
2019-04-20T16:42:42.222Z,10.35
2019-04-20T16:45:11.735Z,9.43
2019-04-20T16:47:42.028Z,13.13
2019-04-20T16:50:11.300Z,10.13
2019-04-20T16:52:41.078Z,10.10
2019-04-20T16:55:11.724Z,9.30
2019-04-20T16:57:41.688Z,9.95
2019-04-20T17:00:11.554Z,11.03
2019-04-20T17:02:40.554Z,7.70
2019-04-20T17:05:09.558Z,9.43
2019-04-20T17:07:42.678Z,7.50
2019-04-20T17:10:13.804Z,8.10
2019-04-20T17:12:46.047Z,8.10
2019-04-20T17:15:15.884Z,7.93
2019-04-20T17:17:46.774Z,9.20
2019-04-20T17:20:17.757Z,8.60
2019-04-20T17:22:46.837Z,9.33
2019-04-20T17:25:16.430Z,8.47
2019-04-20T17:28:08.757Z,9.27
2019-04-20T17:31:01.055Z,9.03
2019-04-20T17:33:58.868Z,9.47
2019-04-20T17:36:25.143Z,8.47
2019-04-20T17:38:54.925Z,9.17
2019-04-20T17:41:39.954Z,9.67
2019-04-20T17:44:10.019Z,6.77
2019-04-20T17:46:35.786Z,9.40
2019-04-20T17:49:08.919Z,9.63
2019-04-20T17:51:50.098Z,7.40
2019-04-20T17:54:21.827Z,8.80
2019-04-20T17:56:52.188Z,9.40
2019-04-20T17:59:22.227Z,7.67
2019-04-20T18:02:25.512Z,10.27
2019-04-20T18:05:12.694Z,9.20
2019-04-20T18:07:41.249Z,8.87
2019-04-20T18:10:09.818Z,8.23
2019-04-20T18:12:28.159Z,10.83
2019-04-20T18:15:06.499Z,9.30
2019-04-20T18:17:55.041Z,10.20
2019-04-20T18:20:18.915Z,11.17
2019-04-20T18:22:53.558Z,10.03
2019-04-20T18:25:38.155Z,10.83
2019-04-20T18:28:04.400Z,10.53
2019-04-20T18:30:43.657Z,9.60
2019-04-20T18:33:05.325Z,10.63
2019-04-20T18:35:40.516Z,7.37
2019-04-20T18:38:10.987Z,10.13
2019-04-20T18:40:44.512Z,9.43
2019-04-20T18:43:13.408Z,15.40
2019-04-20T18:49:51.381Z,11.83
2019-04-20T18:52:31.677Z,12.53
2019-04-20T18:55:30.189Z,11.17
2019-04-20T18:58:11.189Z,12.20
2019-04-20T19:00:59.511Z,10.30
2019-04-20T19:03:49.032Z,10.27
2019-04-20T19:06:31.799Z,8.90
2019-04-20T19:12:01.979Z,9.20
2019-04-20T19:15:02.437Z,11.13
2019-04-20T19:17:57.004Z,12.53
2019-04-20T19:20:29.015Z,12.70
2019-04-20T19:23:11.284Z,9.40
2019-04-20T19:28:42.227Z,13.40
2019-04-20T19:31:35.499Z,13.90
2019-04-20T19:34:22.741Z,17.43
2019-04-20T19:36:58.153Z,16.73
2019-04-20T19:39:38.528Z,8.70
2019-04-20T19:42:19.525Z,9.43
2019-04-20T19:45:06.582Z,8.73
2019-04-20T19:47:51.250Z,9.30
2019-04-20T19:53:24.115Z,8.53
2019-04-20T19:55:52.973Z,7.60
2019-04-20T19:58:34.387Z,10.23
2019-04-20T20:01:06.734Z,11.33
2019-04-20T20:03:54.757Z,9.03
2019-04-20T20:06:39.129Z,11.77
2019-04-20T20:09:16.067Z,8.13
2019-04-20T20:12:02.966Z,10.60
2019-04-20T20:14:42.965Z,11.73
2019-04-20T20:17:44.276Z,11.87
2019-04-20T20:20:28.732Z,8.83
2019-04-20T20:22:50.510Z,12.60
2019-04-20T20:25:35.663Z,10.77
2019-04-20T20:28:25.604Z,11.77
2019-04-20T20:31:04.425Z,11.43
2019-04-20T20:33:52.841Z,14.33
2019-04-20T20:36:21.741Z,15.07
2019-04-20T20:39:15.988Z,14.30
2019-04-20T20:42:12.896Z,14.17
2019-04-20T20:44:55.115Z,13.07
2019-04-20T20:47:54.958Z,12.37
2019-04-20T20:50:48.721Z,12.83
2019-04-20T20:56:01.901Z,18.63
2019-04-20T20:58:37.485Z,15.23
2019-04-20T21:01:20.291Z,11.57
2019-04-20T21:04:04.937Z,12.13
2019-04-20T21:06:54.897Z,10.67
2019-04-20T21:09:44.186Z,11.60
2019-04-20T21:12:36.438Z,10.37
2019-04-20T21:15:45.417Z,11.13
2019-04-20T21:18:47.539Z,13.97
2019-04-20T21:21:38.258Z,12.40
2019-04-20T21:24:30.692Z,12.30
2019-04-20T21:27:21.973Z,12.37
2019-04-20T21:30:16.817Z,13.47
2019-04-20T21:33:03.320Z,13.37
2019-04-20T21:35:51.741Z,14.13
2019-04-20T21:38:41.478Z,15.27
2019-04-20T21:41:29.470Z,12.93
2019-04-20T21:44:24.277Z,14.63
2019-04-20T21:47:09.142Z,14.37
2019-04-20T21:50:20.342Z,11.30
2019-04-20T21:52:53.313Z,14.00
2019-04-20T21:55:37.451Z,15.33
2019-04-20T21:58:07.305Z,12.57
2019-04-20T22:01:09.590Z,11.90
2019-04-20T22:03:48.023Z,13.87
2019-04-20T22:06:38.161Z,13.53
2019-04-20T22:09:20.334Z,17.60
2019-04-20T22:12:02.104Z,13.97
2019-04-20T22:14:43.941Z,15.63
2019-04-20T22:17:28.848Z,12.73
2019-04-20T22:20:20.104Z,13.23
2019-04-20T22:23:04.594Z,16.63
2019-04-20T22:25:48.977Z,18.23
2019-04-20T22:30:58.022Z,16.40
2019-04-20T22:33:41.361Z,14.33
2019-04-20T22:36:25.955Z,13.77
2019-04-20T22:42:14.955Z,12.27
2019-04-20T22:45:01.940Z,10.87
2019-04-20T22:47:39.173Z,12.47
2019-04-20T22:50:33.696Z,11.13
2019-04-20T22:53:21.666Z,13.73
2019-04-20T22:56:05.698Z,14.40
2019-04-20T22:58:46.034Z,14.90
2019-04-20T23:01:19.353Z,20.23
2019-04-20T23:03:52.945Z,12.13
2019-04-20T23:06:46.281Z,10.33
2019-04-20T23:09:24.763Z,13.47
2019-04-20T23:12:10.072Z,11.10
2019-04-20T23:14:50.190Z,13.23
2019-04-20T23:20:22.930Z,12.10
2019-04-20T23:22:56.841Z,10.67
2019-04-20T23:25:39.005Z,13.30
2019-04-20T23:28:22.447Z,13.40
2019-04-20T23:31:09.394Z,13.30
2019-04-20T23:33:45.710Z,13.73
2019-04-20T23:36:36.542Z,11.87
2019-04-20T23:39:10.781Z,11.20
2019-04-20T23:41:57.053Z,11.80
2019-04-20T23:44:45.850Z,12.30
2019-04-20T23:50:43.574Z,15.33
2019-04-20T23:53:19.472Z,19.87
2019-04-20T23:55:47.873Z,20.27
2019-04-20T23:58:30.934Z,22.13
